Time;durP1;ratioP1;P1;durP2;ratioP2;P2;SDS_P1;SDS_P2;PMS_P1;PMS_P2;Temp;Humidity;BMP_temperature;BMP_pressure;BME280_temperature;BME280_humidity;BME280_pressure;Samples;Min_cycle;Max_cycle;Signal;HPM_P1;HPM_P2
2021/05/17 00:00:05;;;;;;;14.00;12.40;;;;;;;17.09;74.75;100009.19;5054715;28;20041;-64
2021/05/17 00:02:32;;;;;;;19.95;13.23;;;;;;;17.08;74.62;99990.78;5054575;28;20051;-64
2021/05/17 00:04:59;;;;;;;15.13;13.30;;;;;;;17.07;74.76;99997.88;5054646;28;20045;-64
2021/05/17 00:07:26;;;;;;;15.75;13.27;;;;;;;17.08;74.47;99988.13;5054646;28;20041;-64
2021/05/17 00:09:53;;;;;;;18.52;13.45;;;;;;;17.08;74.68;99988.13;5054463;28;20049;-64
2021/05/17 00:12:20;;;;;;;15.05;13.38;;;;;;;17.06;75.14;99976.81;5049075;28;20044;-64
2021/05/17 00:14:47;;;;;;;17.35;14.30;;;;;;;17.05;74.83;99969.84;5054618;28;20440;-64
2021/05/17 00:17:14;;;;;;;16.40;13.15;;;;;;;17.04;75.00;99968.16;5054418;28;20094;-64
2021/05/17 00:19:41;;;;;;;18.40;14.48;;;;;;;17.04;75.30;99968.16;5054411;28;20057;-64
2021/05/17 00:22:08;;;;;;;17.88;13.88;;;;;;;17.02;74.91;99957.72;5054132;28;20047;-64
2021/05/17 00:24:35;;;;;;;17.08;15.07;;;;;;;17.01;75.13;99968.47;5054477;28;20045;-64
2021/05/17 00:27:02;;;;;;;20.52;15.43;;;;;;;16.98;75.06;99965.13;5054070;28;20059;-64
2021/05/17 00:29:30;;;;;;;18.63;14.90;;;;;;;16.97;75.56;99958.16;5054373;28;20041;-64
2021/05/17 00:31:57;;;;;;;19.45;16.15;;;;;;;16.97;75.35;99960.81;5054048;28;20044;-64
2021/05/17 00:34:24;;;;;;;22.55;16.38;;;;;;;16.96;75.02;99950.38;5039956;28;20498;-64
2021/05/17 00:36:50;;;;;;;19.40;15.93;;;;;;;16.94;75.50;99944.41;5044758;28;20053;-64
2021/05/17 00:39:17;;;;;;;18.88;15.55;;;;;;;16.93;75.55;99945.38;5054122;28;20064;-64
2021/05/17 00:41:45;;;;;;;19.52;15.68;;;;;;;16.92;75.34;99941.03;5053799;28;20705;-64
2021/05/17 00:44:13;;;;;;;16.65;14.85;;;;;;;16.90;75.36;99933.22;5053764;28;20421;-65
2021/05/17 00:46:41;;;;;;;19.30;15.32;;;;;;;16.90;75.46;99927.06;5053933;28;20497;-64
2021/05/17 00:49:08;;;;;;;18.85;15.73;;;;;;;16.88;75.05;99940.47;5053756;28;20041;-64
2021/05/17 00:51:35;;;;;;;18.88;15.30;;;;;;;16.87;75.27;99927.38;5043643;28;20045;-64
2021/05/17 00:54:03;;;;;;;17.85;14.55;;;;;;;16.84;75.06;99923.22;5053691;28;20041;-64
2021/05/17 00:56:30;;;;;;;19.15;14.02;;;;;;;16.82;74.86;99917.22;5053624;28;20064;-65
2021/05/17 00:58:58;;;;;;;20.05;15.63;;;;;;;16.80;74.98;99930.63;5053917;28;20463;-64
2021/05/17 01:01:25;;;;;;;16.33;14.50;;;;;;;16.79;75.05;99922.81;5053484;28;20041;-64
2021/05/17 01:03:52;;;;;;;18.20;14.68;;;;;;;16.78;75.15;99927.25;5053253;28;20049;-64
2021/05/17 01:06:19;;;;;;;18.15;14.80;;;;;;;16.76;75.09;99929.25;5053322;28;20046;-64
2021/05/17 01:08:57;;;;;;;20.17;14.48;;;;;;;16.71;75.08;99975.69;5045495;28;20067;-64
2021/05/17 01:11:26;;;;;;;19.80;15.98;;;;;;;16.61;75.32;99989.81;5053180;28;20056;-64
2021/05/17 01:13:59;;;;;;;20.88;13.63;;;;;;;16.53;75.74;99995.00;5053192;28;20044;-64
2021/05/17 01:16:26;;;;;;;19.58;12.38;;;;;;;16.43;75.98;99973.84;5053273;28;20047;-64
2021/05/17 01:18:54;;;;;;;13.32;9.18;;;;;;;16.35;76.48;99964.94;5053260;28;20452;-65
2021/05/17 01:21:23;;;;;;;10.40;8.15;;;;;;;16.26;75.95;99967.47;5053117;28;20092;-65
2021/05/17 01:23:55;;;;;;;12.07;8.68;;;;;;;16.23;76.08;99959.00;5053133;28;20041;-65
2021/05/17 01:26:24;;;;;;;9.05;7.70;;;;;;;16.24;75.90;99956.22;5049683;28;20055;-66
2021/05/17 01:28:57;;;;;;;8.75;6.15;;;;;;;16.26;75.38;99961.34;5053006;28;20051;-65
2021/05/17 01:31:24;;;;;;;5.63;4.50;;;;;;;16.24;75.34;99965.94;5052443;28;20060;-66
2021/05/17 01:33:52;;;;;;;6.10;4.65;;;;;;;16.23;75.05;99966.94;5050881;28;20049;-65
2021/05/17 01:36:19;;;;;;;5.05;4.05;;;;;;;16.21;74.64;99972.34;5052774;28;20080;-66
2021/05/17 01:38:53;;;;;;;4.80;3.53;;;;;;;16.19;74.00;99966.38;5052643;28;20417;-66
2021/05/17 01:41:22;;;;;;;3.53;2.95;;;;;;;16.19;73.71;99963.75;5050509;28;20474;-65
2021/05/17 01:43:53;;;;;;;4.00;2.20;;;;;;;16.20;73.59;99951.34;5038402;28;20045;-65
2021/05/17 01:46:24;;;;;;;3.03;1.98;;;;;;;16.20;73.69;99938.94;5050297;28;20135;-65
2021/05/17 01:48:55;;;;;;;2.88;1.73;;;;;;;16.15;72.70;99931.44;5052745;28;20521;-66
2021/05/17 01:51:22;;;;;;;3.00;1.55;;;;;;;16.08;72.55;99932.97;5045360;28;20045;-66
2021/05/17 01:53:51;;;;;;;1.60;1.33;;;;;;;16.02;72.21;99925.59;5052902;28;20041;-66
2021/05/17 01:56:20;;;;;;;2.97;1.60;;;;;;;15.98;72.30;99924.22;5052508;28;20045;-65
2021/05/17 01:58:47;;;;;;;6.05;1.60;;;;;;;15.94;72.20;99913.06;5045488;28;20056;-65
2021/05/17 02:01:16;;;;;;;3.45;1.80;;;;;;;15.92;72.07;99908.91;5052253;28;20135;-65
2021/05/17 02:03:45;;;;;;;3.50;1.75;;;;;;;15.92;71.88;99924.78;5052472;28;20049;-66
2021/05/17 02:06:14;;;;;;;3.20;1.88;;;;;;;15.90;72.08;99930.22;5052376;28;20052;-65
2021/05/17 02:08:44;;;;;;;2.80;1.45;;;;;;;15.90;71.89;99926.75;5052375;28;20049;-65
2021/05/17 02:11:13;;;;;;;8.43;3.13;;;;;;;15.89;72.06;99927.72;5052364;28;20055;-65
2021/05/17 02:13:40;;;;;;;1.50;1.25;;;;;;;15.87;72.01;99933.16;5051877;28;20055;-65
2021/05/17 02:16:11;;;;;;;1.33;1.10;;;;;;;15.86;72.00;99930.63;5048177;28;20072;-65
2021/05/17 02:18:40;;;;;;;1.27;0.77;;;;;;;15.81;72.05;99920.47;5052176;28;20136;-65
2021/05/17 02:21:09;;;;;;;1.67;1.17;;;;;;;15.78;72.02;99918.09;5052064;28;20080;-65
2021/05/17 02:23:37;;;;;;;2.15;1.00;;;;;;;15.76;71.85;99917.41;5051746;28;20049;-65
2021/05/17 02:26:04;;;;;;;1.23;0.85;;;;;;;15.76;71.77;99914.75;5052253;28;20045;-66
2021/05/17 02:28:34;;;;;;;1.20;0.88;;;;;;;15.71;71.48;99922.28;5051971;28;20153;-66
2021/05/17 02:31:02;;;;;;;2.78;0.82;;;;;;;15.70;71.73;99925.91;5052254;28;20056;-66
2021/05/17 02:33:29;;;;;;;1.17;0.70;;;;;;;15.69;71.53;99925.06;5042301;28;20076;-65
2021/05/17 02:35:56;;;;;;;1.10;0.75;;;;;;;15.66;71.51;99934.09;5048105;28;20401;-66
2021/05/17 02:38:23;;;;;;;2.63;1.05;;;;;;;15.63;71.52;99928.25;5050267;28;20045;-65
2021/05/17 02:40:50;;;;;;;2.90;1.20;;;;;;;15.63;71.52;99934.41;5051976;28;20561;-65
2021/05/17 02:43:22;;;;;;;3.75;1.08;;;;;;;15.60;71.21;99921.44;5051644;28;20045;-65
2021/05/17 02:45:50;;;;;;;1.48;0.90;;;;;;;15.62;71.43;99930.06;5051989;28;20551;-65
2021/05/17 02:48:20;;;;;;;2.00;0.95;;;;;;;15.63;71.21;99922.97;5051822;28;20041;-65
2021/05/17 02:50:48;;;;;;;2.78;1.00;;;;;;;15.65;71.51;99910.44;5052004;28;20041;-65
2021/05/17 02:53:33;;;;;;;1.70;1.15;;;;;;;15.66;71.26;99898.91;5049598;28;20045;-65
2021/05/17 02:56:29;;;;;;;2.83;1.38;;;;;;;15.61;71.51;99901.13;5051917;28;20053;-66
2021/05/17 02:58:58;;;;;;;2.97;1.67;;;;;;;15.59;71.39;99887.19;5050818;28;20060;-66
2021/05/17 03:01:35;;;;;;;1.77;1.15;;;;;;;15.60;71.44;99871.19;5051602;28;20497;-66
2021/05/17 03:04:12;;;;;;;1.85;1.10;;;;;;;15.63;71.69;99870.91;5047556;28;20095;-65
2021/05/17 03:06:40;;;;;;;2.00;1.13;;;;;;;15.64;71.41;99880.53;5048314;28;20083;-66
2021/05/17 03:09:09;;;;;;;3.20;1.30;;;;;;;15.66;71.35;99883.84;5048478;28;20045;-65
2021/05/17 03:11:46;;;;;;;2.15;1.15;;;;;;;15.66;71.56;99890.97;5046306;28;20045;-65
2021/05/17 03:14:15;;;;;;;4.18;1.40;;;;;;;15.65;71.63;99903.34;5048543;28;20144;-68
2021/05/17 03:16:46;;;;;;;2.13;1.27;;;;;;;15.63;71.52;99920.31;5048581;28;20056;-66
2021/05/17 03:19:14;;;;;;;1.20;0.95;;;;;;;15.62;71.77;99930.06;5048104;28;20485;-65
2021/05/17 03:21:43;;;;;;;2.53;1.30;;;;;;;15.62;71.51;99942.47;5048284;28;20057;-66
2021/05/17 03:24:12;;;;;;;2.22;1.40;;;;;;;15.62;71.73;99956.53;5048349;28;20052;-65
2021/05/17 03:26:40;;;;;;;3.13;1.10;;;;;;;15.62;71.78;99972.38;5050808;28;20071;-65
2021/05/17 03:29:07;;;;;;;2.13;1.15;;;;;;;15.61;71.84;99981.28;5052153;28;20123;-65
2021/05/17 03:31:34;;;;;;;1.42;0.85;;;;;;;15.59;71.77;99985.91;5052132;28;20481;-65
2021/05/17 03:34:01;;;;;;;1.38;0.80;;;;;;;15.55;71.58;99988.94;5038627;28;20461;-66
2021/05/17 03:36:28;;;;;;;1.63;1.02;;;;;;;15.48;71.49;100004.53;5051766;28;20053;-65
2021/05/17 03:38:55;;;;;;;2.72;1.10;;;;;;;15.44;71.72;100000.47;5052026;28;20127;-66
2021/05/17 03:41:22;;;;;;;1.50;0.90;;;;;;;15.45;71.63;99996.88;5051640;28;20045;-65
2021/05/17 03:43:49;;;;;;;3.60;0.90;;;;;;;15.47;71.55;100008.16;5051693;28;20049;-65
2021/05/17 03:46:16;;;;;;;1.30;0.90;;;;;;;15.46;71.23;100004.66;5051884;28;20410;-66
2021/05/17 03:48:43;;;;;;;2.83;1.08;;;;;;;15.41;71.04;99991.00;5051693;28;20080;-66
2021/05/17 03:51:13;;;;;;;3.60;1.00;;;;;;;15.37;71.05;99994.91;5050624;28;20049;-66
2021/05/17 03:53:40;;;;;;;2.88;0.80;;;;;;;15.33;71.06;99990.88;5051700;28;20053;-65
2021/05/17 03:56:07;;;;;;;2.58;1.00;;;;;;;15.27;70.99;99984.31;5051375;28;20060;-65
2021/05/17 03:58:34;;;;;;;2.55;1.17;;;;;;;15.24;71.01;99981.13;5051800;28;20056;-70
2021/05/17 04:01:01;;;;;;;3.40;1.02;;;;;;;15.20;70.96;99975.28;5051282;28;20080;-66
2021/05/17 04:03:29;;;;;;;2.85;1.20;;;;;;;15.20;71.24;99991.13;5048915;28;20049;-66
2021/05/17 04:14:00;;;;;;;2.28;1.60;;;;;;;15.06;71.48;100028.47;5048936;28;20041;-65
2021/05/17 04:16:27;;;;;;;3.88;1.65;;;;;;;15.05;71.64;100038.22;5046328;28;20045;-65
2021/05/17 04:18:54;;;;;;;2.53;1.63;;;;;;;15.06;71.75;100047.81;5051140;28;20045;-65
2021/05/17 04:21:21;;;;;;;1.98;1.50;;;;;;;15.10;71.84;100062.44;5051015;28;20053;-66
2021/05/17 04:23:48;;;;;;;4.03;1.90;;;;;;;15.14;71.83;100076.22;5044336;28;20049;-65
2021/05/17 04:26:15;;;;;;;2.75;1.65;;;;;;;15.16;71.80;100090.13;5043249;28;20045;-65
2021/05/17 04:28:42;;;;;;;2.72;1.80;;;;;;;15.21;72.05;100087.09;5050798;28;20055;-65
2021/05/17 04:31:09;;;;;;;4.10;1.45;;;;;;;15.22;71.68;100089.59;5050966;28;20059;-66
2021/05/17 04:33:35;;;;;;;2.38;2.17;;;;;;;15.22;71.90;100104.63;5039923;28;20080;-65
2021/05/17 04:36:02;;;;;;;4.30;1.80;;;;;;;15.22;71.70;100108.09;5047679;28;20052;-65
2021/05/17 04:38:29;;;;;;;2.75;1.90;;;;;;;15.20;72.01;100107.41;5050257;28;20507;-65
2021/05/17 04:40:57;;;;;;;4.10;1.83;;;;;;;15.22;72.12;100110.75;5042694;28;20442;-66
2021/05/17 04:43:24;;;;;;;3.17;1.90;;;;;;;15.22;72.03;100110.75;5050354;28;20048;-66
2021/05/17 04:45:51;;;;;;;3.90;1.77;;;;;;;15.18;72.32;100123.41;5050576;28;20401;-69
2021/05/17 04:48:18;;;;;;;2.78;2.10;;;;;;;15.16;72.49;100125.34;5050557;28;20048;-65
2021/05/17 04:50:45;;;;;;;3.17;2.10;;;;;;;15.18;72.59;100112.84;5044780;28;20081;-65
2021/05/17 04:53:13;;;;;;;3.65;1.75;;;;;;;15.15;72.72;100118.38;5041294;28;20569;-65
2021/05/17 04:55:40;;;;;;;2.30;1.50;;;;;;;15.16;72.70;100112.13;5039158;28;20565;-66
2021/05/17 04:58:08;;;;;;;2.92;1.95;;;;;;;15.16;72.71;100117.41;5036265;28;20050;-68
2021/05/17 05:00:36;;;;;;;3.88;1.42;;;;;;;15.17;72.66;100108.53;5039307;28;20084;-68
2021/05/17 05:03:03;;;;;;;2.42;1.60;;;;;;;15.17;72.79;100100.59;5040937;28;20041;-69
2021/05/17 05:05:30;;;;;;;2.10;1.45;;;;;;;15.18;73.04;100104.91;5045329;28;20049;-68
2021/05/17 05:07:56;;;;;;;1.60;1.10;;;;;;;15.20;72.92;100110.06;5040458;28;20042;-69
2021/05/17 05:10:23;;;;;;;1.40;1.13;;;;;;;15.22;73.21;100107.28;5044998;28;20434;-68
2021/05/17 05:12:50;;;;;;;2.75;1.40;;;;;;;15.27;73.11;100110.34;5032955;28;20049;-69
2021/05/17 05:15:17;;;;;;;4.63;1.33;;;;;;;15.28;73.21;100107.56;5035108;28;20077;-69
2021/05/17 05:17:44;;;;;;;4.32;1.30;;;;;;;15.28;73.47;100110.22;5033067;28;20049;-68
2021/05/17 05:20:17;;;;;;;2.45;1.20;;;;;;;15.31;73.44;100107.31;5034929;28;20054;-68
2021/05/17 05:22:52;;;;;;;1.80;1.05;;;;;;;15.35;73.40;100110.53;5032321;28;20041;-67
2021/05/17 05:25:29;;;;;;;5.32;1.33;;;;;;;15.34;73.48;100106.22;5035092;28;20051;-66
2021/05/17 05:27:57;;;;;;;1.70;1.00;;;;;;;15.35;73.69;100099.97;5032648;28;20046;-68
2021/05/17 05:33:17;;;;;;;1.73;0.93;;;;;;;15.37;73.94;100095.38;5030700;28;20487;-69
2021/05/17 05:35:46;;;;;;;2.70;1.40;;;;;;;15.37;73.92;100102.47;5044588;28;20067;-69
2021/05/17 05:38:13;;;;;;;1.92;1.38;;;;;;;15.40;73.77;100100.41;5048134;28;20053;-67
2021/05/17 05:40:41;;;;;;;3.80;1.20;;;;;;;15.44;74.17;100106.22;5047545;28;20052;-68
2021/05/17 05:43:07;;;;;;;3.65;1.25;;;;;;;15.47;74.18;100111.28;5047314;28;20053;-69
2021/05/17 05:45:42;;;;;;;2.97;1.20;;;;;;;15.50;74.27;100111.84;5048181;28;20057;-67
2021/05/17 05:48:08;;;;;;;1.45;1.25;;;;;;;15.55;74.54;100119.34;5046539;28;20095;-66
2021/05/17 05:50:37;;;;;;;1.73;1.15;;;;;;;15.57;74.68;100117.41;5047052;28;20053;-66
2021/05/17 05:53:04;;;;;;;1.48;0.85;;;;;;;15.63;74.92;100127.47;5044990;28;20040;-71
2021/05/17 05:55:31;;;;;;;1.50;1.10;;;;;;;15.66;74.87;100124.53;5038455;28;20049;-67
2021/05/17 05:57:58;;;;;;;1.63;1.13;;;;;;;15.70;74.76;100129.56;5032796;28;20041;-67
2021/05/17 06:00:31;;;;;;;1.83;1.35;;;;;;;15.74;75.06;100130.97;5029213;28;20072;-67
2021/05/17 06:02:59;;;;;;;1.60;0.90;;;;;;;15.81;75.04;100126.81;5029716;28;20103;-66
2021/05/17 06:05:26;;;;;;;1.85;1.02;;;;;;;15.86;74.93;100135.22;5032643;28;20089;-67
2021/05/17 06:07:56;;;;;;;3.25;1.08;;;;;;;15.92;74.95;100137.31;5030633;28;20565;-67
2021/05/17 06:10:23;;;;;;;4.40;1.05;;;;;;;16.00;74.89;100139.28;5036135;28;20048;-67
2021/05/17 06:12:51;;;;;;;1.52;1.13;;;;;;;16.06;74.96;100138.72;5047501;28;20045;-73
2021/05/17 06:15:19;;;;;;;1.58;1.13;;;;;;;16.09;74.67;100138.44;5046010;28;20048;-67
2021/05/17 06:17:46;;;;;;;1.85;1.20;;;;;;;16.12;74.56;100148.72;5048372;28;20045;-67
2021/05/17 06:20:15;;;;;;;1.77;1.00;;;;;;;16.12;74.59;100148.72;5047781;28;20056;-67
2021/05/17 06:22:42;;;;;;;2.08;1.10;;;;;;;16.16;74.22;100155.44;5042247;28;20055;-69
2021/05/17 06:25:12;;;;;;;2.30;0.93;;;;;;;16.22;74.10;100163.81;5032494;28;20052;-67
2021/05/17 06:27:40;;;;;;;1.20;1.00;;;;;;;16.30;74.50;100158.66;5029303;28;20057;-68
2021/05/17 06:30:10;;;;;;;1.13;0.80;;;;;;;16.37;74.66;100156.31;5030959;28;20451;-65
2021/05/17 06:32:39;;;;;;;2.30;0.80;;;;;;;16.44;74.47;100158.25;5042040;28;21712;-66
2021/05/17 06:35:15;;;;;;;3.47;1.30;;;;;;;16.49;73.87;100169.25;5037499;28;20453;-66
2021/05/17 06:37:42;;;;;;;1.02;0.80;;;;;;;16.55;73.26;100178.44;5048184;28;20049;-66
2021/05/17 06:40:12;;;;;;;2.28;1.00;;;;;;;16.60;73.15;100168.28;5034644;28;20073;-66
2021/05/17 06:42:39;;;;;;;1.73;1.20;;;;;;;16.68;73.60;100174.69;5035633;28;20486;-65
2021/05/17 06:45:07;;;;;;;1.27;1.10;;;;;;;16.74;73.11;100177.59;5048111;28;20048;-65
2021/05/17 06:47:35;;;;;;;1.73;0.73;;;;;;;16.80;72.98;100178.88;5048372;28;20395;-64
2021/05/17 06:50:05;;;;;;;1.80;0.93;;;;;;;16.88;72.94;100178.16;5045257;28;20107;-65
2021/05/17 06:52:32;;;;;;;3.50;0.88;;;;;;;16.93;72.49;100168.81;5032104;28;20060;-65
2021/05/17 06:55:03;;;;;;;1.92;1.08;;;;;;;17.01;72.18;100172.56;5035393;28;20507;-65
2021/05/17 07:00:06;;;;;;;2.38;0.93;;;;;;;17.13;72.19;100182.88;5035302;28;20045;-67
2021/05/17 07:02:36;;;;;;;2.80;1.30;;;;;;;17.20;71.19;100185.78;5035853;28;20056;-66
2021/05/17 07:05:06;;;;;;;2.38;0.82;;;;;;;17.21;70.98;100182.16;5039108;28;20080;-65
2021/05/17 07:12:46;;;;;;;3.05;0.40;;;;;;;17.42;68.98;100191.69;5035786;28;20045;-64
2021/05/17 07:15:13;;;;;;;0.82;0.38;;;;;;;17.51;68.06;100197.97;5038853;28;20099;-64
2021/05/17 07:17:44;;;;;;;3.05;0.50;;;;;;;17.54;67.64;100206.47;5045775;28;20049;-64
2021/05/17 07:20:13;;;;;;;1.00;0.38;;;;;;;17.57;67.62;100200.88;5037596;28;20063;-64
2021/05/17 07:25:30;;;;;;;1.75;0.50;;;;;;;17.67;65.29;100210.63;5038856;28;20399;-64
2021/05/17 07:28:03;;;;;;;0.50;0.20;;;;;;;17.79;64.39;100204.13;5036513;28;20486;-65
2021/05/17 07:30:32;;;;;;;0.45;0.30;;;;;;;17.89;63.73;100204.06;5038514;28;20037;-64
2021/05/17 07:32:59;;;;;;;1.00;0.30;;;;;;;17.99;62.81;100201.41;5035359;28;20053;-64
2021/05/17 07:35:29;;;;;;;0.98;0.30;;;;;;;18.10;62.76;100203.84;5043504;28;20045;-65
2021/05/17 07:37:56;;;;;;;0.93;0.38;;;;;;;18.21;62.47;100208.13;5051424;28;20055;-64
2021/05/17 07:40:23;;;;;;;1.30;0.40;;;;;;;18.31;62.06;100202.72;5050297;28;20056;-64
2021/05/17 07:42:50;;;;;;;0.30;0.30;;;;;;;18.43;62.23;100212.16;5051014;28;20505;-64
2021/05/17 07:45:20;;;;;;;6.85;0.95;;;;;;;18.56;61.58;100209.97;5044094;28;20087;-65
2021/05/17 07:47:47;;;;;;;1.15;0.40;;;;;;;18.66;61.01;100203.72;5051438;28;20045;-64
2021/05/17 07:50:14;;;;;;;1.67;0.30;;;;;;;18.76;60.40;100201.81;5051307;28;20152;-64
2021/05/17 07:52:40;;;;;;;1.70;0.30;;;;;;;18.81;59.53;100212.00;5051450;28;20045;-65
2021/05/17 07:55:08;;;;;;;0.30;0.10;;;;;;;18.80;58.70;100208.47;5051137;28;20114;-65
2021/05/17 07:57:38;;;;;;;0.40;0.10;;;;;;;18.74;57.63;100212.59;5051439;28;20049;-64
2021/05/17 08:00:07;;;;;;;0.10;0.10;;;;;;;18.83;57.02;100212.66;5050875;28;20559;-64
2021/05/17 08:02:34;;;;;;;2.53;0.30;;;;;;;18.89;56.58;100212.03;5049878;28;20049;-64
2021/05/17 08:05:03;;;;;;;2.42;0.20;;;;;;;18.96;56.14;100220.25;5043982;28;20045;-64
2021/05/17 08:07:32;;;;;;;2.35;0.70;;;;;;;19.02;56.53;100225.81;5051225;28;20049;-64
2021/05/17 08:09:58;;;;;;;0.20;0.15;;;;;;;19.01;57.25;100226.81;5051012;28;20047;-65
2021/05/17 08:12:25;;;;;;;1.42;0.40;;;;;;;18.97;57.37;100241.41;5049726;28;20448;-64
2021/05/17 08:14:53;;;;;;;4.50;0.50;;;;;;;18.99;58.01;100233.25;5048998;28;20127;-64
2021/05/17 08:17:20;;;;;;;0.45;0.20;;;;;;;19.07;57.49;100243.94;5050710;28;20123;-64
2021/05/17 08:19:47;;;;;;;0.80;0.20;;;;;;;19.13;55.70;100242.50;5042747;28;20089;-64
2021/05/17 08:22:18;;;;;;;0.35;0.25;;;;;;;19.22;53.99;100231.78;5049953;28;20091;-63
2021/05/17 08:24:45;;;;;;;0.40;0.30;;;;;;;19.34;53.68;100240.31;5050257;28;20493;-64
2021/05/17 08:27:11;;;;;;;1.35;0.22;;;;;;;19.47;53.83;100244.41;5050116;28;20124;-63
2021/05/17 08:29:38;;;;;;;0.73;0.20;;;;;;;19.56;52.67;100238.13;5050362;28;20499;-65
2021/05/17 08:32:10;;;;;;;2.55;0.30;;;;;;;19.66;53.09;100233.50;5050209;28;20107;-65
2021/05/17 08:34:37;;;;;;;1.05;0.13;;;;;;;19.76;53.22;100238.72;5036088;28;20516;-64
2021/05/17 08:37:04;;;;;;;1.05;0.30;;;;;;;19.85;53.39;100240.44;5049145;28;20053;-65
2021/05/17 08:39:32;;;;;;;0.60;0.30;;;;;;;19.94;52.62;100241.31;5050564;28;20453;-65
2021/05/17 08:41:59;;;;;;;1.23;0.63;;;;;;;20.06;53.11;100255.16;5050097;28;20061;-70
2021/05/17 08:44:28;;;;;;;0.55;0.30;;;;;;;20.15;53.13;100248.03;5049637;28;20045;-63
2021/05/17 08:46:55;;;;;;;0.77;0.30;;;;;;;20.25;53.09;100255.91;5050409;28;20053;-64
2021/05/17 08:49:22;;;;;;;2.33;0.30;;;;;;;20.33;53.19;100245.28;5050088;28;20636;-64
2021/05/17 08:51:49;;;;;;;2.60;0.30;;;;;;;20.41;51.37;100263.13;5048103;28;20416;-65
2021/05/17 08:54:16;;;;;;;0.47;0.20;;;;;;;20.48;51.27;100264.13;5050089;28;20558;-65
2021/05/17 08:56:46;;;;;;;0.90;0.40;;;;;;;20.58;49.57;100270.13;5050214;28;20421;-64
2021/05/17 08:59:19;;;;;;;1.45;0.30;;;;;;;20.67;48.54;100266.50;5050218;28;20041;-64
2021/05/17 09:01:46;;;;;;;0.38;0.20;;;;;;;20.78;49.15;100275.19;5050033;28;20052;-64
2021/05/17 09:04:17;;;;;;;0.60;0.20;;;;;;;20.88;49.26;100262.53;5049720;28;20049;-65
2021/05/17 09:06:48;;;;;;;0.65;0.40;;;;;;;20.94;48.00;100269.88;5049861;28;20045;-63
2021/05/17 09:09:25;;;;;;;0.90;0.70;;;;;;;21.01;46.90;100275.38;5049935;28;20512;-67
2021/05/17 09:11:57;;;;;;;0.65;0.20;;;;;;;21.08;46.04;100270.19;5049182;28;20520;-65
2021/05/17 09:14:26;;;;;;;1.02;0.20;;;;;;;21.12;44.76;100277.69;5048048;28;20051;-64
2021/05/17 09:17:02;;;;;;;0.57;0.20;;;;;;;21.22;45.86;100274.88;5049502;28;20076;-64
2021/05/17 09:19:35;;;;;;;0.30;0.10;;;;;;;21.39;45.92;100275.66;5049174;28;20052;-64
2021/05/17 09:22:10;;;;;;;1.58;0.28;;;;;;;21.56;44.82;100278.34;5049574;28;20504;-64
2021/05/17 09:24:47;;;;;;;1.75;0.32;;;;;;;21.70;44.16;100280.31;5049297;28;20070;-67
2021/05/17 09:27:20;;;;;;;1.20;0.20;;;;;;;21.85;44.13;100283.09;5049114;28;20052;-67
2021/05/17 09:29:53;;;;;;;0.50;0.20;;;;;;;21.98;43.90;100282.56;5049601;28;20048;-68
2021/05/17 09:32:26;;;;;;;0.28;0.20;;;;;;;22.12;43.36;100289.03;5048904;28;20099;-67
2021/05/17 09:35:08;;;;;;;1.38;0.45;;;;;;;22.23;42.65;100296.63;5034424;28;20049;-67
2021/05/17 09:37:49;;;;;;;0.88;0.30;;;;;;;22.39;42.65;100292.25;5044738;28;20045;-67
2021/05/17 09:40:28;;;;;;;0.55;0.30;;;;;;;22.53;42.44;100288.00;5049127;28;20084;-67
2021/05/17 09:43:06;;;;;;;0.65;0.30;;;;;;;22.66;41.94;100288.22;5048853;28;20051;-68
2021/05/17 09:45:47;;;;;;;1.10;0.47;;;;;;;22.75;42.44;100300.53;5049129;28;20060;-70
2021/05/17 09:48:23;;;;;;;1.25;0.40;;;;;;;22.79;42.44;100299.19;5049096;28;20052;-67
2021/05/17 09:51:12;;;;;;;2.72;0.47;;;;;;;22.24;43.52;100309.00;5049072;28;20106;-67
2021/05/17 09:53:42;;;;;;;1.17;0.40;;;;;;;21.77;42.90;100312.50;5041734;28;20052;-65
2021/05/17 09:56:18;;;;;;;1.05;0.70;;;;;;;21.62;43.09;100310.56;5048880;28;20441;-66
2021/05/17 09:58:57;;;;;;;1.10;0.38;;;;;;;21.86;42.76;100306.13;5048925;28;20080;-66
2021/05/17 10:01:29;;;;;;;0.57;0.30;;;;;;;22.18;42.67;100309.69;5048653;28;20130;-66
2021/05/17 10:04:06;;;;;;;0.55;0.32;;;;;;;22.54;43.13;100311.03;5039701;28;20053;-66
2021/05/17 10:06:33;;;;;;;2.30;0.40;;;;;;;22.84;42.38;100306.66;5034528;28;20532;-66
2021/05/17 10:09:22;;;;;;;;;;;;;;;;;;;;;
2021/05/17 10:12:10;;;;;;;2.25;0.47;;;;;;;23.44;41.99;100294.31;4948026;28;20050;-67
2021/05/17 10:14:37;;;;;;;0.50;0.50;;;;;;;23.38;41.84;100303.06;5030808;28;20045;-66
2021/05/17 10:17:04;;;;;;;1.23;0.55;;;;;;;22.85;42.96;100308.34;5043130;28;20051;-67
2021/05/17 10:19:32;;;;;;;1.80;0.57;;;;;;;22.77;42.22;100305.72;5030691;28;20111;-66
2021/05/17 10:22:00;;;;;;;0.93;0.50;;;;;;;23.04;41.87;100311.56;5029092;28;20049;-67
2021/05/17 10:24:27;;;;;;;0.40;0.38;;;;;;;23.28;41.28;100318.56;5028136;28;20057;-67
2021/05/17 10:27:03;;;;;;;0.35;0.28;;;;;;;23.58;40.80;100316.78;5029716;28;20064;-66
2021/05/17 10:29:34;;;;;;;0.73;0.50;;;;;;;23.91;40.92;100315.59;5029355;28;20042;-67
2021/05/17 10:32:04;;;;;;;1.52;0.40;;;;;;;24.13;40.41;100314.66;5029792;28;20474;-67
2021/05/17 10:34:41;;;;;;;1.83;0.40;;;;;;;24.28;39.48;100320.00;5029737;28;20124;-68
2021/05/17 10:37:18;;;;;;;1.20;0.88;;;;;;;24.40;39.23;100332.94;5029246;28;20053;-67
2021/05/17 10:39:47;;;;;;;1.63;0.82;;;;;;;24.53;38.98;100333.13;5030589;28;20142;-67
2021/05/17 10:48:16;;;;;;;1.63;0.85;;;;;;;24.25;40.06;100331.13;5029853;28;20045;-67
2021/05/17 10:50:47;;;;;;;1.17;0.90;;;;;;;24.39;38.98;100328.59;5032113;28;20045;-67
2021/05/17 10:53:40;;;;;;;2.35;0.77;;;;;;;24.61;38.97;100324.94;5028809;28;20421;-66
2021/05/17 10:56:13;;;;;;;1.50;0.75;;;;;;;24.89;38.44;100316.16;5028754;28;20051;-66
2021/05/17 11:02:33;;;;;;;4.80;1.50;;;;;;;24.94;40.30;100310.22;5034536;28;20044;-67
2021/05/17 11:05:18;;;;;;;3.42;2.35;;;;;;;25.05;40.43;100306.19;5033526;28;20482;-67
2021/05/17 11:07:45;;;;;;;3.27;2.70;;;;;;;25.02;38.84;100285.94;5028049;28;20064;-66
2021/05/17 11:10:22;;;;;;;2.60;2.40;;;;;;;25.08;39.17;100293.22;5028359;28;20280;-67
2021/05/17 11:12:52;;;;;;;2.80;2.00;;;;;;;25.23;38.89;100301.19;5038926;28;20053;-67
2021/05/17 11:15:43;;;;;;;2.97;2.00;;;;;;;25.45;38.80;100300.34;5027830;28;20462;-67
2021/05/17 11:18:12;;;;;;;3.45;2.53;;;;;;;25.52;38.24;100303.91;5027993;28;20100;-67
2021/05/17 11:20:39;;;;;;;3.83;2.97;;;;;;;25.53;37.50;100298.31;5037416;28;20049;-73
2021/05/17 11:23:26;;;;;;;3.25;2.45;;;;;;;25.54;36.68;100294.59;5047813;28;20211;-68
2021/05/17 11:25:59;;;;;;;2.95;2.42;;;;;;;25.39;38.22;100310.00;5047512;28;20072;-70
2021/05/17 11:31:38;;;;;;;2.45;2.20;;;;;;;25.29;36.50;100296.88;5047838;28;20076;-66
2021/05/17 11:34:09;;;;;;;1.55;1.40;;;;;;;25.37;35.75;100293.25;5034753;28;20049;-67
2021/05/17 11:37:09;;;;;;;2.72;2.10;;;;;;;25.46;34.98;100299.31;5045938;28;20059;-67
2021/05/17 11:39:39;;;;;;;4.18;1.52;;;;;;;25.48;33.39;100298.06;5027832;28;20056;-69
2021/05/17 11:42:10;;;;;;;3.55;2.45;;;;;;;25.55;34.36;100306.19;5038511;28;20053;-67
2021/05/17 11:45:12;;;;;;;2.90;2.70;;;;;;;25.62;34.51;100292.81;5042340;28;20045;-70
2021/05/17 11:47:39;;;;;;;3.95;2.83;;;;;;;25.71;34.20;100288.91;5043557;28;20045;-67
2021/05/17 11:50:08;;;;;;;3.30;2.28;;;;;;;25.49;33.76;100278.25;5048633;28;20103;-68
2021/05/17 11:52:36;;;;;;;6.32;3.10;;;;;;;25.49;34.39;100293.56;5045841;28;20499;-69
2021/05/17 11:55:07;;;;;;;3.78;3.15;;;;;;;25.04;35.80;100305.38;5047419;28;20040;-67
2021/05/17 11:57:37;;;;;;;4.47;3.60;;;;;;;24.77;36.12;100312.31;5046730;28;20139;-70
2021/05/17 12:00:14;;;;;;;5.47;3.90;;;;;;;24.31;37.48;100321.50;5043616;28;20081;-68
2021/05/17 12:03:10;;;;;;;5.57;3.50;;;;;;;23.86;38.17;100342.94;5048329;28;20044;-67
2021/05/17 12:05:37;;;;;;;4.93;3.42;;;;;;;23.58;37.99;100362.31;5049989;28;20049;-67
2021/05/17 12:08:04;;;;;;;2.30;1.30;;;;;;;23.41;38.48;100385.72;5049549;28;20041;-69
2021/05/17 12:10:37;;;;;;;1.50;0.30;;;;;;;23.14;36.03;100379.88;5050165;28;20103;-68
2021/05/17 12:13:16;;;;;;;1.80;0.20;;;;;;;22.83;34.55;100371.91;5049757;28;20053;-65